Address 0x0774d19c9a890eec89fb2316ce349492cf8e8d0a 5

Txn Hash Method
Block
From
To
Value [Txn Fee]
0x46d59cfcf854566b3419312943b84b8d11441420ebe9f5b36fddc5dcd5deb990Stake167282352022-06-30 20:16:312 days 12 hrs ago0x0774d19c9a890eec89fb2316ce349492cf8e8d0aOUT 0x9cc69d980a9e015526d624fb46c1b5bd048bb4600 AVAX0.003041405 26.5
0xbec4bd3fd7d218c0d2cdaf95ca5257c5fbe545ada922d91a62e63826588a07d5Create Node With...167282152022-06-30 20:15:512 days 12 hrs ago0x0774d19c9a890eec89fb2316ce349492cf8e8d0aOUT 0x3e8ed0e33684a00f0091114dd95f3eb05ac5bed50 AVAX0.006229196 26.5
0x31ca334ba66accda8ea1dc43ed125f729377e09ba7443636f8d8f1f843d1c50cSwap Exact AVAX ...167281812022-06-30 20:14:432 days 12 hrs ago0x0774d19c9a890eec89fb2316ce349492cf8e8d0aOUT Trader Joe: Router2.5 AVAX0.0046126165 26.5
0xe50a37bdd540e9a40334b6826e6e630f34de4f090e506965dadd801b1e86630dTransfer167281292022-06-30 20:12:592 days 12 hrs ago0x4a4e859565d9b563afc8e63641542455cff0dfd2 IN 0x0774d19c9a890eec89fb2316ce349492cf8e8d0a2.77520814 AVAX0.00052525
0xa0a4a3f1bac652d5ee390ba2f1cb523439aea935d7ebfb80546c4571a754e092Create Node With...164093612022-06-23 11:02:229 days 21 hrs ago0x0774d19c9a890eec89fb2316ce349492cf8e8d0aOUT 0x7c2fb31a607240249b53c30cd443d13456f7dac10 AVAX0.0063712825 27.5
0x7865f3c2fe51c6e3ed97ad22004af10f79cc7f8612e0eba83d276376ed9655ea0x38b9fdc7164093292022-06-23 11:01:179 days 21 hrs ago0x0774d19c9a890eec89fb2316ce349492cf8e8d0aOUT 0x7c2fb31a607240249b53c30cd443d13456f7dac10 AVAX0.013390465 27.5
0x779105c3999f510cbc59af5a0325b93571b32accfc5dcace768e6f4a988b50050x38b9fdc7164093102022-06-23 11:00:399 days 21 hrs ago0x0774d19c9a890eec89fb2316ce349492cf8e8d0aOUT 0x7c2fb31a607240249b53c30cd443d13456f7dac10 AVAX0.0086287575 27.5
0x8f35becb3c7238cfc2223c068e4a60c73bd3b669b8ad96cbd809fb7468159001Compound163556002022-06-22 5:10:2111 days 3 hrs ago0x0774d19c9a890eec89fb2316ce349492cf8e8d0aOUT 0x0ae678c5eed6af7937c7993e3b1b4978c987c2b20 AVAX0.0055503985 26.5
0xe0fb9ed88f20542e1506da1d2df4371e4d060b7838bec1a373881fe770c51990Create Node With...162613212022-06-20 0:46:5213 days 7 hrs ago0x0774d19c9a890eec89fb2316ce349492cf8e8d0aOUT 0x7c2fb31a607240249b53c30cd443d13456f7dac10 AVAX0.00717398 27.5
0x65bae67a9aeae30181ce6faef5cb7e70f41b5fcc08af58ec5c1b2a25dfed4d43Swap Exact AVAX ...162606272022-06-20 0:23:3613 days 7 hrs ago0x0774d19c9a890eec89fb2316ce349492cf8e8d0aOUT Pangolin: Router2.568591127 AVAX0.0052934015 26.5
0x07bfa2c92614dde8d3d494abf233726cafc8b72c1b6b261129bf4ee2fff7658aCreate Node With...161667442022-06-17 20:40:5415 days 11 hrs ago0x0774d19c9a890eec89fb2316ce349492cf8e8d0aOUT 0x3e8ed0e33684a00f0091114dd95f3eb05ac5bed50 AVAX0.006229196 26.5
0xb757eb56d38144fd9364d02aad41c7e329a81af9ed464b3306c923f3534ce45cStake161667192022-06-17 20:40:0315 days 11 hrs ago0x0774d19c9a890eec89fb2316ce349492cf8e8d0aOUT 0x9cc69d980a9e015526d624fb46c1b5bd048bb4600 AVAX0.0105670605 26.5
0x6c68e253e3094e28df8403fbcbd64cc7ee745c79608fa1cb766d685c5981e416Swap Exact AVAX ...161667012022-06-17 20:39:2715 days 11 hrs ago0x0774d19c9a890eec89fb2316ce349492cf8e8d0aOUT Trader Joe: Router5.304974499337766 AVAX0.0046126165 26.5
0x54af2f0297574c83fbc8dd186a969d826fe5292d433add841d3835f8f726e9d8Transfer161666562022-06-17 20:37:5815 days 11 hrs ago0x333d17d3b42bf7930dbc6e852ca7bcf560a69003 IN 0x0774d19c9a890eec89fb2316ce349492cf8e8d0a6.1671292 AVAX0.00052525
0xd60406a924f0ae2e899c46b5c21936e47df43c1bdbe4f1c640ed3c535bb078f1Create Node With...159924622022-06-13 20:56:2119 days 11 hrs ago0x0774d19c9a890eec89fb2316ce349492cf8e8d0aOUT 0x7c2fb31a607240249b53c30cd443d13456f7dac10 AVAX0.00717398 27.5
0x476c23e396c503c290abcf7e496f3b61ee5c7e9114e2874c05003d0714a7c223Swap Exact AVAX ...159923712022-06-13 20:53:1719 days 11 hrs ago0x0774d19c9a890eec89fb2316ce349492cf8e8d0aOUT Pangolin: Router2.232985910180258 AVAX0.0052934015 26.5
0x124327f799a8dab128182eca7904443c17a21425fa39734a0f7bbefbd7526518Transfer159438582022-06-12 18:42:2820 days 13 hrs ago0x240d3f2610abfca73095fc59cc27d04fdfc74aa6 IN 0x0774d19c9a890eec89fb2316ce349492cf8e8d0a2.09775854 AVAX0.000622720361 29.65335054
0x40ebddf42277a8021dcb56e0598b72f625810df5bc85b8fcb270f2e9fc38000dCreate Node With...159186972022-06-12 4:49:5121 days 3 hrs ago0x0774d19c9a890eec89fb2316ce349492cf8e8d0aOUT 0x7c2fb31a607240249b53c30cd443d13456f7dac10 AVAX0.010627118749 29.144858089
0x9a4a02824d8732382dc6f1c64034f245d321ca449222998200a3f601b568f357Approve159186752022-06-12 4:49:1121 days 3 hrs ago0x0774d19c9a890eec89fb2316ce349492cf8e8d0aOUT Zeus Node Finance: ZEUS Token0 AVAX0.001277925 27.5
0xd6539b2ffa316ea454848890ae16fe9ae8b1388f7a92542529a34f7c65c52b28Create Node With...159186642022-06-12 4:48:4921 days 3 hrs ago0x0774d19c9a890eec89fb2316ce349492cf8e8d0aOUT 0x7c2fb31a607240249b53c30cd443d13456f7dac10 AVAX0.001865017 26.5
0xdc8ce5f8de7b772051c83b46dfa543f88a5352ef8a1c0c7c5f2285eb9a4edfc0Create Node With...159186342022-06-12 4:47:4921 days 3 hrs ago0x0774d19c9a890eec89fb2316ce349492cf8e8d0aOUT 0x7c2fb31a607240249b53c30cd443d13456f7dac10 AVAX0.001935395 27.5
0x07fe364ce7e7a22e009cf6f0da77b22bacd10080a1e2653bd3c58552fb8ccc78Create Node With...159186102022-06-12 4:46:5921 days 3 hrs ago0x0774d19c9a890eec89fb2316ce349492cf8e8d0aOUT 0x7c2fb31a607240249b53c30cd443d13456f7dac10 AVAX0.001935395 27.5
0xb90099307306ee86f8fad5477862e6368285bfcfeb0f4bb7646391d0619c2587Swap Exact AVAX ...159185782022-06-12 4:45:5521 days 3 hrs ago0x0774d19c9a890eec89fb2316ce349492cf8e8d0aOUT Pangolin: Router0.5 AVAX0.005332166732 26.694067775
0x4d4259c5c73879df46b08c41280ba21ab72c0ba1e923a54db0c2a1e5d997432aTransfer159185122022-06-12 4:43:4521 days 3 hrs ago0xb624219480543c54603fb6b07d5eb347e51bffe0 IN 0x0774d19c9a890eec89fb2316ce349492cf8e8d0a2.75380647 AVAX0.00052525
0x426b1847548d5e9b9622c4a5133758cdb672ebe47db095abdfb1f617dcff197fSwap Exact AVAX ...159181002022-06-12 4:30:0321 days 3 hrs ago0x0774d19c9a890eec89fb2316ce349492cf8e8d0aOUT Pangolin: Router1.700687395121372 AVAX0.0052934015 26.5
[ Download CSV Export 
Latest 5 internal transactions
Parent Txn Hash Block From To Value
0x9d42a2bd8b67ca138450614b1a3fc9d50b320fda42c2e6af9ee253795f56dee2144202742022-05-08 8:20:5656 days ago Trader Joe: Router0x0774d19c9a890eec89fb2316ce349492cf8e8d0a1.426696745492970658 AVAX
0x4b8f7c4b3bd65486c79cd358802f6b2d2d8412ec41b6352ee76fa2a2b87d74a7125924892022-03-26 7:47:3699 days 33 mins ago Multichain: Router V60x0774d19c9a890eec89fb2316ce349492cf8e8d0a4.23632 AVAX
0x279c6e566f5dad42bcd423e39d0c86f9628c37e959afe35ffabf16ab112c5aaa125924012022-03-26 7:44:4199 days 36 mins ago Multichain: Router V60x0774d19c9a890eec89fb2316ce349492cf8e8d0a0.17 AVAX
0xe38eb19379343802f9e458fcf286ccf539367e7302a9351b794eef697e5f9abd125922982022-03-26 7:41:1599 days 39 mins ago Multichain: Router V60x0774d19c9a890eec89fb2316ce349492cf8e8d0a0.17 AVAX
0xf92779c1c53868d1676aad46180a3fc9663d22fa6702e2c26e2ca1b79695d199124208802022-03-22 6:23:04103 days 1 hr ago 0xc590175e458b83680867afd273527ff58f74c02b0x0774d19c9a890eec89fb2316ce349492cf8e8d0a1.487818901535604268 AVAX
[ Download CSV Export 
Loading

Contract Name:
0

Compiler Version
0

Optimization Enabled:
0

Other Settings:
-NA-
Block Transaction Gas Used Reward
Age Block Fee Address BC Fee Address Voting Power Jailed Incoming
Block Uncle Number Difficulty Gas Used Reward
Loading
Make sure to use the "Vote Down" button for any spammy posts, and the "Vote Up" for interesting conversations.